Aeroporto :
LOGIN :

Iscrizione | Disclaimer

   EN    FR    IT 

 










Sommario :    VFR   VFR Marginale   IFR   IFR Intensivo   IFR Molto Intensivo
Visibilità : 
Base nubi : 
>= 8 km
>= 3000ft
5 / 8 km
1000 / 3000 ft
1500m / 5 km
500 / 1000 ft
800 / 1500m
200 / 500 ft
< 800m
< 200 ft
Simboli :   Temporali  Nebbia  Neve Forte  Precipitazioni Forti  Vento > 20 kt
SIGMETs :   Varie  Temporali  Ghiacco  Turbolenza  Onda orograficha  Ceneri Vulcaniche






- Altitudine del aeroporto : 622 ft
- Codice IATA : SVO


UUEE - Sheremetyevo International

ULTIMO METAR :
  • 041830Z 27003MPS CAVOK 01/M07 Q1018 R24L/CLRD62 R24R/CLRD62 NOSIG

METARs OBSOLETI :
  • 041800Z 26003MPS CAVOK 02/M07 Q1018 R24L/CLRD62 R24R/CLRD62 NOSIG
  • 041730Z 30002MPS CAVOK 03/M07 Q1018 R24L/CLRD62 R24R/CLRD62 NOSIG
  • 041700Z 29003MPS CAVOK 04/M08 Q1017 R24L/CLRD62 R24R/CLRD62 NOSIG
  • 041630Z 30004MPS CAVOK 05/M09 Q1017 R24L/CLRD62 R24R/CLRD62 NOSIG
  • 041600Z 31005MPS CAVOK 05/M09 Q1016 R24L/290051 R24R/CLRD62 NOSIG
  • 041530Z 31006MPS 280V340 CAVOK 06/M11 Q1016 R24L/290051 R24R/CLRD62 NOSIG

TAF TAF UUEE
Valido dal 04 a 18 ore il 05 a 18 ore UTC


041650Z 0418/0518 28003G08MPS 9999 BKN016 TX06/0510Z TNM02/0501Z
TEMPO 0504/0508 1500 SHRASN FEW006 BKN011CB
TEMPO 0508/0515 30009G16MPS 1500 SHSNRA FEW006 SCT011CB



MetMap, La meteo Aeronautica in un colpo d'occhio ! - Copyright ORBIFLY Dicembre 2007 - Disclaimer

ORBIFLY MET'MAP TEAM :

Programmazione e sviluppo : Alexandra Zaïnal
Concezione : Baudouin d'Aumeries
Aiuto per la programmazione : Marc-Olivier Méhu
Supporto tecnico e logistico : Manuel Goepfert
Aiuto per la traduzione : Arnaldo La Scala

Contatto : metmap@orbifly.com




FONTI E CREDITI :

   NOAA